Newport, OR

1:44 AM PST on February 21, 2017 (GMT -0800)
MD1265 | | Change Station

Elev 164 ft 44.64 °N, 124.05 °W | Updated 4 hours ago

Rain
Rain
46.0 °F
Feels Like 46.0 °F
N
2.0
Wind Variable Wind from ESE

Today
High -- | Low -- °F
--% Chance of Precip.
Yesterday
High -- | Low -- °F
Precip. -- in
Pressure 29.68 in
Visibility 10.0 miles
Clouds Scattered Clouds 200 ft
Scattered Clouds 800 ft
Mostly Cloudy 1200 ft
Dew Point 45.0 °F
Humidity 95%
Rainfall 0.51 in
Snow Depth Not available.
7:06 AM 5:53 PM
Waning Crescent, 26% visible
METAR KONP 210935Z AUTO 00000KT 10SM -RA SCT002 SCT008 BKN012 07/07 A2968 RMK AO2 P0002
Pressure 29.68 in
Visibility 10.0 miles
Clouds Scattered Clouds 200 ft
Scattered Clouds 800 ft
Mostly Cloudy 1200 ft
Dew Point 45.0 °F
Humidity 95%
Rainfall 0.51 in
Snow Depth Not available.
7:06 AM 5:53 PM
Waning Crescent, 26% visible
METAR KONP 210935Z AUTO 00000KT 10SM -RA SCT002 SCT008 BKN012 07/07 A2968 RMK AO2 P0002

Get Your Daily Forecast Email!

Thanks for signing up!

Be on the lookout for a verification email in your inbox.

You'll start receiving the daily forecast at 8 AM.

×

10-Day Weather Forecast

Almanac

Astronomy

Feb. 21, 2017 Rise Set
Actual Time
Civil Twilight
Nautical Twilight
Astronomical Twilight
Moon
Length of Visible Light
Length of Day
Tomorrow will be .
, % of the Moon is Illuminated

Today's Extremes

State Highs State Lows

Community

WunderPhotos

Upload Photos

1,962,540 photos uploaded!

WunderBlog® & News

Nearby

Air Quality

  Air Quality AQ Index Pollutant
Not available.

Snow Depth

Station Depth Elevation

Earthquake Activity

City Distance Mag. Time & Date
Minimum magnitude displayed is 2.5.

Coastal Water Temperatures

Place Temperature

Stations

Nearby Weather Stations

Station Location Temp. Windchill Dew Point Humidity Wind Precip. Elev Updated Type
                   

Watches & Warnings

Small Craft for Winds Advisory
Issued: 8:09 PM PST Feb. 20, 2017 – National Weather Service

... Small Craft Advisory for winds now in effect from 5 am to 4 PM
PST Tuesday...

* winds... Tuesday north 20 to 25 kt with gusts to 30 kt.

Precautionary/preparedness actions...

A Small Craft Advisory for wind means that wind speeds of 21 to
33 knots are expected. Inexperienced mariners... especially those
operating smaller vessels should avoid navigating in these
conditions.